sensor_id;sensor_type;location;lat;lon;timestamp;P1;durP1;ratioP1;P2;durP2;ratioP2
79149;SDS011;68563;45.644;13.782;2023-05-16T00:00:15;1.08;;;0.70;;
79149;SDS011;68563;45.644;13.782;2023-05-16T00:02:41;1.67;;;0.60;;
79149;SDS011;68563;45.644;13.782;2023-05-16T00:05:07;1.10;;;0.70;;
79149;SDS011;68563;45.644;13.782;2023-05-16T00:07:34;1.27;;;0.70;;
79149;SDS011;68563;45.644;13.782;2023-05-16T00:10:00;1.00;;;0.90;;
79149;SDS011;68563;45.644;13.782;2023-05-16T00:12:26;0.80;;;0.80;;
79149;SDS011;68563;45.644;13.782;2023-05-16T00:14:52;1.05;;;0.50;;
79149;SDS011;68563;45.644;13.782;2023-05-16T00:17:18;0.85;;;0.80;;
79149;SDS011;68563;45.644;13.782;2023-05-16T00:19:44;1.00;;;0.80;;
79149;SDS011;68563;45.644;13.782;2023-05-16T00:22:22;3.20;;;0.80;;
79149;SDS011;68563;45.644;13.782;2023-05-16T00:24:47;1.08;;;0.90;;
79149;SDS011;68563;45.644;13.782;2023-05-16T00:27:12;2.38;;;0.70;;
79149;SDS011;68563;45.644;13.782;2023-05-16T00:29:38;1.80;;;0.70;;
79149;SDS011;68563;45.644;13.782;2023-05-16T00:32:03;1.80;;;0.70;;
79149;SDS011;68563;45.644;13.782;2023-05-16T00:34:29;3.97;;;1.48;;
79149;SDS011;68563;45.644;13.782;2023-05-16T00:36:54;1.23;;;0.82;;
79149;SDS011;68563;45.644;13.782;2023-05-16T00:39:19;1.33;;;0.70;;
79149;SDS011;68563;45.644;13.782;2023-05-16T00:41:45;1.45;;;0.88;;
79149;SDS011;68563;45.644;13.782;2023-05-16T00:44:10;2.47;;;0.70;;
79149;SDS011;68563;45.644;13.782;2023-05-16T00:46:36;3.88;;;0.80;;
79149;SDS011;68563;45.644;13.782;2023-05-16T00:49:02;2.03;;;0.68;;
79149;SDS011;68563;45.644;13.782;2023-05-16T00:51:27;0.63;;;0.60;;
79149;SDS011;68563;45.644;13.782;2023-05-16T00:53:53;0.45;;;0.40;;
79149;SDS011;68563;45.644;13.782;2023-05-16T00:56:20;1.67;;;0.70;;
79149;SDS011;68563;45.644;13.782;2023-05-16T00:58:46;0.85;;;0.40;;
79149;SDS011;68563;45.644;13.782;2023-05-16T01:01:11;0.50;;;0.50;;
79149;SDS011;68563;45.644;13.782;2023-05-16T01:03:38;1.67;;;0.43;;
79149;SDS011;68563;45.644;13.782;2023-05-16T01:06:03;0.55;;;0.40;;
79149;SDS011;68563;45.644;13.782;2023-05-16T01:08:29;1.02;;;0.40;;
79149;SDS011;68563;45.644;13.782;2023-05-16T01:13:45;0.52;;;0.52;;
79149;SDS011;68563;45.644;13.782;2023-05-16T01:16:32;1.30;;;0.40;;
79149;SDS011;68563;45.644;13.782;2023-05-16T01:19:20;0.50;;;0.43;;
79149;SDS011;68563;45.644;13.782;2023-05-16T01:22:15;0.82;;;0.70;;
79149;SDS011;68563;45.644;13.782;2023-05-16T01:27:24;0.35;;;0.30;;
79149;SDS011;68563;45.644;13.782;2023-05-16T01:29:55;0.52;;;0.40;;
79149;SDS011;68563;45.644;13.782;2023-05-16T01:32:21;1.48;;;0.50;;
79149;SDS011;68563;45.644;13.782;2023-05-16T01:34:47;0.52;;;0.50;;
79149;SDS011;68563;45.644;13.782;2023-05-16T01:37:31;1.42;;;0.40;;
79149;SDS011;68563;45.644;13.782;2023-05-16T01:40:07;1.48;;;0.68;;
79149;SDS011;68563;45.644;13.782;2023-05-16T01:42:38;0.60;;;0.40;;
79149;SDS011;68563;45.644;13.782;2023-05-16T01:47:37;2.38;;;0.70;;
79149;SDS011;68563;45.644;13.782;2023-05-16T01:50:15;1.08;;;0.57;;
79149;SDS011;68563;45.644;13.782;2023-05-16T01:53:02;1.48;;;0.47;;
79149;SDS011;68563;45.644;13.782;2023-05-16T01:58:04;0.43;;;0.40;;
79149;SDS011;68563;45.644;13.782;2023-05-16T02:00:32;1.27;;;0.60;;
79149;SDS011;68563;45.644;13.782;2023-05-16T02:02:58;0.90;;;0.60;;
79149;SDS011;68563;45.644;13.782;2023-05-16T02:05:23;2.17;;;0.90;;
79149;SDS011;68563;45.644;13.782;2023-05-16T02:07:49;2.40;;;0.50;;
79149;SDS011;68563;45.644;13.782;2023-05-16T02:10:14;0.70;;;0.70;;
79149;SDS011;68563;45.644;13.782;2023-05-16T02:12:40;1.00;;;0.68;;
79149;SDS011;68563;45.644;13.782;2023-05-16T02:15:05;1.48;;;0.80;;
79149;SDS011;68563;45.644;13.782;2023-05-16T02:17:31;0.73;;;0.68;;
79149;SDS011;68563;45.644;13.782;2023-05-16T02:19:56;3.53;;;1.00;;
79149;SDS011;68563;45.644;13.782;2023-05-16T02:22:22;1.52;;;0.77;;
79149;SDS011;68563;45.644;13.782;2023-05-16T02:24:47;3.15;;;0.80;;
79149;SDS011;68563;45.644;13.782;2023-05-16T02:27:14;0.60;;;0.60;;
79149;SDS011;68563;45.644;13.782;2023-05-16T02:29:39;1.02;;;0.70;;
79149;SDS011;68563;45.644;13.782;2023-05-16T02:32:05;4.32;;;0.80;;
79149;SDS011;68563;45.644;13.782;2023-05-16T02:34:30;1.15;;;0.70;;
79149;SDS011;68563;45.644;13.782;2023-05-16T02:36:55;1.52;;;0.70;;
79149;SDS011;68563;45.644;13.782;2023-05-16T02:39:21;3.33;;;1.00;;
79149;SDS011;68563;45.644;13.782;2023-05-16T02:41:46;1.10;;;0.80;;
79149;SDS011;68563;45.644;13.782;2023-05-16T02:44:12;1.20;;;0.68;;
79149;SDS011;68563;45.644;13.782;2023-05-16T02:46:37;1.50;;;0.90;;
79149;SDS011;68563;45.644;13.782;2023-05-16T02:49:02;0.70;;;0.70;;
79149;SDS011;68563;45.644;13.782;2023-05-16T02:51:28;3.05;;;0.80;;
79149;SDS011;68563;45.644;13.782;2023-05-16T02:53:54;1.17;;;0.95;;
79149;SDS011;68563;45.644;13.782;2023-05-16T02:56:21;2.90;;;0.98;;
79149;SDS011;68563;45.644;13.782;2023-05-16T02:58:47;1.58;;;1.05;;
79149;SDS011;68563;45.644;13.782;2023-05-16T03:01:14;2.58;;;0.90;;
79149;SDS011;68563;45.644;13.782;2023-05-16T03:03:40;2.70;;;0.70;;
79149;SDS011;68563;45.644;13.782;2023-05-16T03:06:06;1.45;;;0.90;;
79149;SDS011;68563;45.644;13.782;2023-05-16T03:08:32;0.95;;;0.80;;
79149;SDS011;68563;45.644;13.782;2023-05-16T03:10:58;1.83;;;1.10;;
79149;SDS011;68563;45.644;13.782;2023-05-16T03:13:23;2.28;;;0.95;;
79149;SDS011;68563;45.644;13.782;2023-05-16T03:15:49;3.10;;;1.23;;
79149;SDS011;68563;45.644;13.782;2023-05-16T03:18:14;3.47;;;1.00;;
79149;SDS011;68563;45.644;13.782;2023-05-16T03:20:40;1.88;;;1.20;;
79149;SDS011;68563;45.644;13.782;2023-05-16T03:23:05;2.10;;;1.15;;
79149;SDS011;68563;45.644;13.782;2023-05-16T03:25:35;2.60;;;1.10;;
79149;SDS011;68563;45.644;13.782;2023-05-16T03:28:01;3.67;;;0.90;;
79149;SDS011;68563;45.644;13.782;2023-05-16T03:30:31;1.83;;;1.00;;
79149;SDS011;68563;45.644;13.782;2023-05-16T03:32:57;3.65;;;1.08;;
79149;SDS011;68563;45.644;13.782;2023-05-16T03:35:22;2.30;;;0.90;;
79149;SDS011;68563;45.644;13.782;2023-05-16T03:37:48;3.15;;;1.10;;
79149;SDS011;68563;45.644;13.782;2023-05-16T03:40:14;1.98;;;0.80;;
79149;SDS011;68563;45.644;13.782;2023-05-16T03:42:39;2.42;;;0.80;;
79149;SDS011;68563;45.644;13.782;2023-05-16T03:45:05;1.88;;;0.90;;
79149;SDS011;68563;45.644;13.782;2023-05-16T03:47:31;1.27;;;1.13;;
79149;SDS011;68563;45.644;13.782;2023-05-16T03:49:57;1.48;;;0.90;;
79149;SDS011;68563;45.644;13.782;2023-05-16T03:52:22;1.13;;;0.98;;
79149;SDS011;68563;45.644;13.782;2023-05-16T03:54:48;1.52;;;0.93;;
79149;SDS011;68563;45.644;13.782;2023-05-16T03:57:13;2.22;;;1.00;;
79149;SDS011;68563;45.644;13.782;2023-05-16T03:59:39;1.08;;;1.00;;
79149;SDS011;68563;45.644;13.782;2023-05-16T04:02:04;1.52;;;1.00;;
79149;SDS011;68563;45.644;13.782;2023-05-16T04:04:30;1.40;;;1.15;;
79149;SDS011;68563;45.644;13.782;2023-05-16T04:06:55;2.28;;;1.00;;
79149;SDS011;68563;45.644;13.782;2023-05-16T04:09:21;2.58;;;1.25;;
79149;SDS011;68563;45.644;13.782;2023-05-16T04:11:46;1.00;;;0.90;;
79149;SDS011;68563;45.644;13.782;2023-05-16T04:14:12;1.88;;;1.20;;
79149;SDS011;68563;45.644;13.782;2023-05-16T04:16:37;1.73;;;1.25;;
79149;SDS011;68563;45.644;13.782;2023-05-16T04:19:03;1.75;;;1.38;;
79149;SDS011;68563;45.644;13.782;2023-05-16T04:21:28;2.08;;;1.25;;
79149;SDS011;68563;45.644;13.782;2023-05-16T04:23:54;0.90;;;0.80;;
79149;SDS011;68563;45.644;13.782;2023-05-16T04:26:19;1.20;;;1.10;;
79149;SDS011;68563;45.644;13.782;2023-05-16T04:28:46;2.08;;;0.90;;
79149;SDS011;68563;45.644;13.782;2023-05-16T04:31:11;1.95;;;1.40;;
79149;SDS011;68563;45.644;13.782;2023-05-16T04:33:38;2.45;;;1.30;;
79149;SDS011;68563;45.644;13.782;2023-05-16T04:36:03;3.08;;;1.40;;
79149;SDS011;68563;45.644;13.782;2023-05-16T04:38:30;2.90;;;1.10;;
79149;SDS011;68563;45.644;13.782;2023-05-16T04:40:56;1.85;;;1.33;;
79149;SDS011;68563;45.644;13.782;2023-05-16T04:43:21;2.40;;;1.13;;
79149;SDS011;68563;45.644;13.782;2023-05-16T04:45:47;2.55;;;1.30;;
79149;SDS011;68563;45.644;13.782;2023-05-16T04:48:12;1.73;;;1.00;;
79149;SDS011;68563;45.644;13.782;2023-05-16T04:50:39;1.52;;;1.30;;
79149;SDS011;68563;45.644;13.782;2023-05-16T04:53:04;2.28;;;1.20;;
79149;SDS011;68563;45.644;13.782;2023-05-16T04:55:30;1.38;;;1.10;;
79149;SDS011;68563;45.644;13.782;2023-05-16T04:57:55;2.50;;;1.20;;
79149;SDS011;68563;45.644;13.782;2023-05-16T05:00:21;1.92;;;1.10;;
79149;SDS011;68563;45.644;13.782;2023-05-16T05:02:46;1.42;;;1.33;;
79149;SDS011;68563;45.644;13.782;2023-05-16T05:05:12;3.65;;;1.20;;
79149;SDS011;68563;45.644;13.782;2023-05-16T05:07:37;1.17;;;1.05;;
79149;SDS011;68563;45.644;13.782;2023-05-16T05:10:03;1.63;;;1.20;;
79149;SDS011;68563;45.644;13.782;2023-05-16T05:12:30;1.67;;;1.10;;
79149;SDS011;68563;45.644;13.782;2023-05-16T05:14:55;2.08;;;1.33;;
79149;SDS011;68563;45.644;13.782;2023-05-16T05:17:21;1.25;;;1.15;;
79149;SDS011;68563;45.644;13.782;2023-05-16T05:19:47;1.45;;;1.25;;
79149;SDS011;68563;45.644;13.782;2023-05-16T05:22:13;3.50;;;1.27;;
79149;SDS011;68563;45.644;13.782;2023-05-16T05:24:38;1.92;;;1.45;;
79149;SDS011;68563;45.644;13.782;2023-05-16T05:27:04;2.60;;;1.40;;
79149;SDS011;68563;45.644;13.782;2023-05-16T05:29:29;1.48;;;1.35;;
79149;SDS011;68563;45.644;13.782;2023-05-16T05:31:55;1.52;;;1.42;;
79149;SDS011;68563;45.644;13.782;2023-05-16T05:34:20;1.70;;;1.35;;
79149;SDS011;68563;45.644;13.782;2023-05-16T05:36:46;1.10;;;0.90;;
79149;SDS011;68563;45.644;13.782;2023-05-16T05:39:11;2.22;;;1.05;;
79149;SDS011;68563;45.644;13.782;2023-05-16T05:41:36;2.00;;;1.10;;
79149;SDS011;68563;45.644;13.782;2023-05-16T05:44:02;2.65;;;0.90;;
79149;SDS011;68563;45.644;13.782;2023-05-16T05:46:28;1.67;;;1.20;;
79149;SDS011;68563;45.644;13.782;2023-05-16T05:48:54;1.27;;;1.10;;
79149;SDS011;68563;45.644;13.782;2023-05-16T05:51:19;2.08;;;1.10;;
79149;SDS011;68563;45.644;13.782;2023-05-16T05:53:45;1.40;;;0.82;;
79149;SDS011;68563;45.644;13.782;2023-05-16T05:56:10;1.20;;;1.00;;
79149;SDS011;68563;45.644;13.782;2023-05-16T05:58:36;1.10;;;0.90;;
79149;SDS011;68563;45.644;13.782;2023-05-16T06:01:03;1.60;;;1.20;;
79149;SDS011;68563;45.644;13.782;2023-05-16T06:03:28;1.77;;;0.90;;
79149;SDS011;68563;45.644;13.782;2023-05-16T06:05:54;1.17;;;0.90;;
79149;SDS011;68563;45.644;13.782;2023-05-16T06:08:19;2.80;;;0.90;;
79149;SDS011;68563;45.644;13.782;2023-05-16T06:10:45;0.75;;;0.60;;
79149;SDS011;68563;45.644;13.782;2023-05-16T06:13:11;3.95;;;1.00;;
79149;SDS011;68563;45.644;13.782;2023-05-16T06:15:42;2.63;;;0.88;;
79149;SDS011;68563;45.644;13.782;2023-05-16T06:18:08;2.08;;;0.80;;
79149;SDS011;68563;45.644;13.782;2023-05-16T06:20:33;2.97;;;0.90;;
79149;SDS011;68563;45.644;13.782;2023-05-16T06:22:59;1.08;;;0.90;;
79149;SDS011;68563;45.644;13.782;2023-05-16T06:25:25;1.85;;;0.80;;
79149;SDS011;68563;45.644;13.782;2023-05-16T06:27:50;1.77;;;1.08;;
79149;SDS011;68563;45.644;13.782;2023-05-16T06:30:16;2.25;;;0.70;;
79149;SDS011;68563;45.644;13.782;2023-05-16T06:32:41;1.52;;;0.90;;
79149;SDS011;68563;45.644;13.782;2023-05-16T06:35:07;6.32;;;1.10;;
79149;SDS011;68563;45.644;13.782;2023-05-16T06:37:33;1.40;;;0.80;;
79149;SDS011;68563;45.644;13.782;2023-05-16T06:39:59;1.85;;;1.10;;
79149;SDS011;68563;45.644;13.782;2023-05-16T06:42:24;0.88;;;0.70;;
79149;SDS011;68563;45.644;13.782;2023-05-16T06:44:49;1.35;;;1.00;;
79149;SDS011;68563;45.644;13.782;2023-05-16T06:47:15;1.70;;;1.10;;
79149;SDS011;68563;45.644;13.782;2023-05-16T06:49:40;2.60;;;1.35;;
79149;SDS011;68563;45.644;13.782;2023-05-16T06:52:06;2.45;;;1.08;;
79149;SDS011;68563;45.644;13.782;2023-05-16T06:54:31;1.27;;;0.82;;
79149;SDS011;68563;45.644;13.782;2023-05-16T06:56:57;1.10;;;1.00;;
79149;SDS011;68563;45.644;13.782;2023-05-16T06:59:22;2.05;;;0.88;;
79149;SDS011;68563;45.644;13.782;2023-05-16T07:01:47;1.90;;;0.90;;
79149;SDS011;68563;45.644;13.782;2023-05-16T07:04:13;1.58;;;1.10;;
79149;SDS011;68563;45.644;13.782;2023-05-16T07:06:39;1.88;;;1.20;;
79149;SDS011;68563;45.644;13.782;2023-05-16T07:09:04;1.90;;;0.80;;
79149;SDS011;68563;45.644;13.782;2023-05-16T07:11:30;0.90;;;0.65;;
79149;SDS011;68563;45.644;13.782;2023-05-16T07:13:55;1.73;;;1.02;;
79149;SDS011;68563;45.644;13.782;2023-05-16T07:16:21;2.13;;;1.08;;
79149;SDS011;68563;45.644;13.782;2023-05-16T07:18:46;1.30;;;1.20;;
79149;SDS011;68563;45.644;13.782;2023-05-16T07:21:12;2.47;;;0.90;;
79149;SDS011;68563;45.644;13.782;2023-05-16T07:23:37;3.45;;;1.00;;
79149;SDS011;68563;45.644;13.782;2023-05-16T07:26:02;1.42;;;1.10;;
79149;SDS011;68563;45.644;13.782;2023-05-16T07:28:28;3.85;;;0.90;;
79149;SDS011;68563;45.644;13.782;2023-05-16T07:30:53;2.03;;;0.63;;
79149;SDS011;68563;45.644;13.782;2023-05-16T07:33:19;0.68;;;0.68;;
79149;SDS011;68563;45.644;13.782;2023-05-16T07:35:44;0.70;;;0.57;;
79149;SDS011;68563;45.644;13.782;2023-05-16T07:38:10;4.38;;;1.08;;
79149;SDS011;68563;45.644;13.782;2023-05-16T07:40:35;2.05;;;0.90;;
79149;SDS011;68563;45.644;13.782;2023-05-16T07:43:01;1.50;;;1.00;;
79149;SDS011;68563;45.644;13.782;2023-05-16T07:45:27;1.35;;;0.65;;
79149;SDS011;68563;45.644;13.782;2023-05-16T07:47:52;1.30;;;0.60;;
79149;SDS011;68563;45.644;13.782;2023-05-16T07:50:18;1.33;;;0.82;;
79149;SDS011;68563;45.644;13.782;2023-05-16T07:52:43;2.63;;;0.77;;
79149;SDS011;68563;45.644;13.782;2023-05-16T07:55:09;1.00;;;0.80;;
79149;SDS011;68563;45.644;13.782;2023-05-16T07:57:34;2.45;;;0.80;;
79149;SDS011;68563;45.644;13.782;2023-05-16T08:00:00;2.75;;;0.55;;
79149;SDS011;68563;45.644;13.782;2023-05-16T08:02:25;1.23;;;0.80;;
79149;SDS011;68563;45.644;13.782;2023-05-16T08:04:54;0.80;;;0.70;;
79149;SDS011;68563;45.644;13.782;2023-05-16T08:07:21;1.98;;;0.85;;
79149;SDS011;68563;45.644;13.782;2023-05-16T08:09:47;1.35;;;0.80;;
79149;SDS011;68563;45.644;13.782;2023-05-16T08:12:12;0.40;;;0.40;;
79149;SDS011;68563;45.644;13.782;2023-05-16T08:14:38;0.43;;;0.40;;
79149;SDS011;68563;45.644;13.782;2023-05-16T08:17:03;2.25;;;1.00;;
79149;SDS011;68563;45.644;13.782;2023-05-16T08:19:29;1.42;;;0.80;;
79149;SDS011;68563;45.644;13.782;2023-05-16T08:21:56;0.73;;;0.50;;
79149;SDS011;68563;45.644;13.782;2023-05-16T08:24:22;2.13;;;0.70;;
79149;SDS011;68563;45.644;13.782;2023-05-16T08:26:47;0.95;;;0.60;;
79149;SDS011;68563;45.644;13.782;2023-05-16T08:29:12;0.75;;;0.70;;
79149;SDS011;68563;45.644;13.782;2023-05-16T08:31:38;2.88;;;0.80;;
79149;SDS011;68563;45.644;13.782;2023-05-16T08:34:04;2.25;;;0.63;;
79149;SDS011;68563;45.644;13.782;2023-05-16T08:36:30;4.00;;;0.68;;
79149;SDS011;68563;45.644;13.782;2023-05-16T08:38:58;0.52;;;0.40;;
79149;SDS011;68563;45.644;13.782;2023-05-16T08:41:24;1.02;;;0.60;;
79149;SDS011;68563;45.644;13.782;2023-05-16T08:43:49;0.82;;;0.65;;
79149;SDS011;68563;45.644;13.782;2023-05-16T08:46:16;1.60;;;0.50;;
79149;SDS011;68563;45.644;13.782;2023-05-16T08:48:46;2.33;;;0.50;;
79149;SDS011;68563;45.644;13.782;2023-05-16T08:51:14;1.15;;;0.63;;
79149;SDS011;68563;45.644;13.782;2023-05-16T08:53:44;0.65;;;0.60;;
79149;SDS011;68563;45.644;13.782;2023-05-16T08:56:14;0.90;;;0.57;;
79149;SDS011;68563;45.644;13.782;2023-05-16T08:58:41;3.08;;;0.50;;
79149;SDS011;68563;45.644;13.782;2023-05-16T09:01:06;1.63;;;0.70;;
79149;SDS011;68563;45.644;13.782;2023-05-16T09:03:36;0.90;;;0.70;;
79149;SDS011;68563;45.644;13.782;2023-05-16T09:06:06;0.57;;;0.50;;
79149;SDS011;68563;45.644;13.782;2023-05-16T09:08:31;0.57;;;0.50;;
79149;SDS011;68563;45.644;13.782;2023-05-16T09:10:57;3.88;;;0.60;;
79149;SDS011;68563;45.644;13.782;2023-05-16T09:13:25;0.65;;;0.63;;
79149;SDS011;68563;45.644;13.782;2023-05-16T09:18:39;0.65;;;0.50;;
79149;SDS011;68563;45.644;13.782;2023-05-16T09:21:08;2.00;;;0.60;;
79149;SDS011;68563;45.644;13.782;2023-05-16T09:23:34;0.75;;;0.60;;
79149;SDS011;68563;45.644;13.782;2023-05-16T09:26:00;0.85;;;0.82;;
79149;SDS011;68563;45.644;13.782;2023-05-16T09:28:27;0.50;;;0.50;;
79149;SDS011;68563;45.644;13.782;2023-05-16T09:30:53;1.02;;;0.60;;
79149;SDS011;68563;45.644;13.782;2023-05-16T09:33:22;1.10;;;0.40;;
79149;SDS011;68563;45.644;13.782;2023-05-16T09:35:54;0.55;;;0.55;;
79149;SDS011;68563;45.644;13.782;2023-05-16T09:38:24;0.60;;;0.50;;
79149;SDS011;68563;45.644;13.782;2023-05-16T09:40:52;1.85;;;0.68;;
79149;SDS011;68563;45.644;13.782;2023-05-16T09:43:29;0.80;;;0.80;;
79149;SDS011;68563;45.644;13.782;2023-05-16T09:45:57;1.88;;;0.73;;
79149;SDS011;68563;45.644;13.782;2023-05-16T09:48:23;1.65;;;0.50;;
79149;SDS011;68563;45.644;13.782;2023-05-16T09:50:52;1.35;;;0.60;;
79149;SDS011;68563;45.644;13.782;2023-05-16T09:53:28;1.73;;;0.60;;
79149;SDS011;68563;45.644;13.782;2023-05-16T09:55:58;0.75;;;0.60;;
79149;SDS011;68563;45.644;13.782;2023-05-16T09:58:35;0.50;;;0.40;;
79149;SDS011;68563;45.644;13.782;2023-05-16T10:01:02;2.22;;;0.60;;
79149;SDS011;68563;45.644;13.782;2023-05-16T10:03:28;1.95;;;0.60;;
79149;SDS011;68563;45.644;13.782;2023-05-16T10:05:54;0.70;;;0.60;;
79149;SDS011;68563;45.644;13.782;2023-05-16T10:08:24;1.00;;;0.80;;
79149;SDS011;68563;45.644;13.782;2023-05-16T10:10:54;2.83;;;0.50;;
79149;SDS011;68563;45.644;13.782;2023-05-16T10:13:21;0.80;;;0.80;;
79149;SDS011;68563;45.644;13.782;2023-05-16T10:15:57;0.98;;;0.77;;
79149;SDS011;68563;45.644;13.782;2023-05-16T10:18:27;0.80;;;0.65;;
79149;SDS011;68563;45.644;13.782;2023-05-16T10:20:54;1.63;;;0.50;;
79149;SDS011;68563;45.644;13.782;2023-05-16T10:23:22;2.17;;;0.68;;
79149;SDS011;68563;45.644;13.782;2023-05-16T10:25:50;1.55;;;0.77;;
79149;SDS011;68563;45.644;13.782;2023-05-16T10:28:15;0.90;;;0.60;;
79149;SDS011;68563;45.644;13.782;2023-05-16T10:30:42;1.20;;;0.70;;
79149;SDS011;68563;45.644;13.782;2023-05-16T10:33:14;1.30;;;0.80;;
79149;SDS011;68563;45.644;13.782;2023-05-16T10:35:41;2.60;;;0.98;;
79149;SDS011;68563;45.644;13.782;2023-05-16T10:38:07;2.55;;;1.00;;
79149;SDS011;68563;45.644;13.782;2023-05-16T10:40:36;1.55;;;0.90;;
79149;SDS011;68563;45.644;13.782;2023-05-16T10:43:03;2.78;;;0.70;;
79149;SDS011;68563;45.644;13.782;2023-05-16T10:45:30;0.75;;;0.60;;
79149;SDS011;68563;45.644;13.782;2023-05-16T10:56:06;1.05;;;0.60;;
79149;SDS011;68563;45.644;13.782;2023-05-16T11:06:29;0.80;;;0.60;;
79149;SDS011;68563;45.644;13.782;2023-05-16T11:16:50;1.35;;;0.60;;
79149;SDS011;68563;45.644;13.782;2023-05-16T11:24:48;1.10;;;1.00;;
79149;SDS011;68563;45.644;13.782;2023-05-16T11:27:24;0.80;;;0.80;;
79149;SDS011;68563;45.644;13.782;2023-05-16T11:29:51;1.08;;;0.98;;
79149;SDS011;68563;45.644;13.782;2023-05-16T11:32:19;2.47;;;0.98;;
79149;SDS011;68563;45.644;13.782;2023-05-16T11:34:48;0.73;;;0.60;;
79149;SDS011;68563;45.644;13.782;2023-05-16T11:37:15;0.75;;;0.60;;
79149;SDS011;68563;45.644;13.782;2023-05-16T11:39:43;1.77;;;0.70;;
79149;SDS011;68563;45.644;13.782;2023-05-16T11:42:09;1.35;;;0.63;;
79149;SDS011;68563;45.644;13.782;2023-05-16T11:44:34;1.33;;;0.60;;
79149;SDS011;68563;45.644;13.782;2023-05-16T11:47:00;1.27;;;1.00;;
79149;SDS011;68563;45.644;13.782;2023-05-16T11:49:26;1.17;;;0.70;;
79149;SDS011;68563;45.644;13.782;2023-05-16T11:51:53;0.98;;;0.70;;
79149;SDS011;68563;45.644;13.782;2023-05-16T11:54:19;1.05;;;0.80;;
79149;SDS011;68563;45.644;13.782;2023-05-16T11:56:45;1.15;;;0.70;;
79149;SDS011;68563;45.644;13.782;2023-05-16T11:59:10;1.05;;;0.82;;
79149;SDS011;68563;45.644;13.782;2023-05-16T12:01:36;0.75;;;0.65;;
79149;SDS011;68563;45.644;13.782;2023-05-16T12:04:10;0.65;;;0.60;;
79149;SDS011;68563;45.644;13.782;2023-05-16T12:06:37;0.90;;;0.60;;
79149;SDS011;68563;45.644;13.782;2023-05-16T12:09:04;0.95;;;0.80;;
79149;SDS011;68563;45.644;13.782;2023-05-16T12:11:36;0.73;;;0.60;;
79149;SDS011;68563;45.644;13.782;2023-05-16T12:14:03;1.80;;;0.82;;
79149;SDS011;68563;45.644;13.782;2023-05-16T12:16:31;2.08;;;0.73;;
79149;SDS011;68563;45.644;13.782;2023-05-16T12:18:57;1.10;;;0.90;;
79149;SDS011;68563;45.644;13.782;2023-05-16T12:21:25;2.95;;;1.15;;
79149;SDS011;68563;45.644;13.782;2023-05-16T12:23:54;2.05;;;0.80;;
79149;SDS011;68563;45.644;13.782;2023-05-16T12:28:53;1.77;;;0.70;;
79149;SDS011;68563;45.644;13.782;2023-05-16T12:31:21;2.70;;;1.02;;
79149;SDS011;68563;45.644;13.782;2023-05-16T12:33:47;0.70;;;0.70;;
79149;SDS011;68563;45.644;13.782;2023-05-16T12:36:16;0.73;;;0.70;;
79149;SDS011;68563;45.644;13.782;2023-05-16T12:38:45;1.42;;;0.70;;
79149;SDS011;68563;45.644;13.782;2023-05-16T12:41:16;1.15;;;0.50;;
79149;SDS011;68563;45.644;13.782;2023-05-16T12:43:43;0.77;;;0.60;;
79149;SDS011;68563;45.644;13.782;2023-05-16T12:46:08;0.50;;;0.50;;
79149;SDS011;68563;45.644;13.782;2023-05-16T12:48:36;0.85;;;0.80;;
79149;SDS011;68563;45.644;13.782;2023-05-16T12:51:12;1.38;;;1.02;;
79149;SDS011;68563;45.644;13.782;2023-05-16T12:53:40;1.45;;;0.60;;
79149;SDS011;68563;45.644;13.782;2023-05-16T12:56:06;0.90;;;0.55;;
79149;SDS011;68563;45.644;13.782;2023-05-16T12:58:32;0.40;;;0.40;;
79149;SDS011;68563;45.644;13.782;2023-05-16T13:00:58;1.48;;;0.70;;
79149;SDS011;68563;45.644;13.782;2023-05-16T13:03:23;1.52;;;0.60;;
79149;SDS011;68563;45.644;13.782;2023-05-16T13:05:48;0.60;;;0.50;;
79149;SDS011;68563;45.644;13.782;2023-05-16T13:08:14;0.77;;;0.50;;
79149;SDS011;68563;45.644;13.782;2023-05-16T13:10:39;0.55;;;0.47;;
79149;SDS011;68563;45.644;13.782;2023-05-16T13:13:05;0.65;;;0.50;;
79149;SDS011;68563;45.644;13.782;2023-05-16T13:15:30;0.70;;;0.63;;
79149;SDS011;68563;45.644;13.782;2023-05-16T13:17:55;0.90;;;0.50;;
79149;SDS011;68563;45.644;13.782;2023-05-16T13:20:21;0.75;;;0.55;;
79149;SDS011;68563;45.644;13.782;2023-05-16T13:22:46;3.30;;;0.70;;
79149;SDS011;68563;45.644;13.782;2023-05-16T13:25:12;1.70;;;0.60;;
79149;SDS011;68563;45.644;13.782;2023-05-16T13:27:37;0.50;;;0.40;;
79149;SDS011;68563;45.644;13.782;2023-05-16T13:30:03;1.40;;;0.70;;
79149;SDS011;68563;45.644;13.782;2023-05-16T13:32:28;0.70;;;0.60;;
79149;SDS011;68563;45.644;13.782;2023-05-16T13:34:54;1.27;;;0.50;;
79149;SDS011;68563;45.644;13.782;2023-05-16T13:37:19;1.42;;;0.90;;
79149;SDS011;68563;45.644;13.782;2023-05-16T13:39:45;1.05;;;0.50;;
79149;SDS011;68563;45.644;13.782;2023-05-16T13:42:10;1.13;;;0.70;;
79149;SDS011;68563;45.644;13.782;2023-05-16T13:44:36;4.47;;;0.75;;
79149;SDS011;68563;45.644;13.782;2023-05-16T13:47:01;1.95;;;0.47;;
79149;SDS011;68563;45.644;13.782;2023-05-16T13:49:27;2.20;;;0.80;;
79149;SDS011;68563;45.644;13.782;2023-05-16T13:51:53;1.70;;;0.75;;
79149;SDS011;68563;45.644;13.782;2023-05-16T13:54:18;3.47;;;0.80;;
79149;SDS011;68563;45.644;13.782;2023-05-16T13:56:45;1.65;;;0.75;;
79149;SDS011;68563;45.644;13.782;2023-05-16T13:59:11;1.92;;;0.90;;
79149;SDS011;68563;45.644;13.782;2023-05-16T14:01:36;1.67;;;0.70;;
79149;SDS011;68563;45.644;13.782;2023-05-16T14:04:02;1.08;;;0.70;;
79149;SDS011;68563;45.644;13.782;2023-05-16T14:06:28;1.75;;;0.70;;
79149;SDS011;68563;45.644;13.782;2023-05-16T14:08:53;3.55;;;0.90;;
79149;SDS011;68563;45.644;13.782;2023-05-16T14:11:18;2.70;;;0.95;;
79149;SDS011;68563;45.644;13.782;2023-05-16T14:13:46;1.25;;;0.68;;
79149;SDS011;68563;45.644;13.782;2023-05-16T14:16:13;1.08;;;0.70;;
79149;SDS011;68563;45.644;13.782;2023-05-16T14:18:38;0.98;;;0.80;;
79149;SDS011;68563;45.644;13.782;2023-05-16T14:21:04;1.63;;;0.80;;
79149;SDS011;68563;45.644;13.782;2023-05-16T14:23:29;1.98;;;0.70;;
79149;SDS011;68563;45.644;13.782;2023-05-16T14:25:55;0.70;;;0.50;;
79149;SDS011;68563;45.644;13.782;2023-05-16T14:28:20;1.50;;;0.80;;
79149;SDS011;68563;45.644;13.782;2023-05-16T14:30:46;1.48;;;0.80;;
79149;SDS011;68563;45.644;13.782;2023-05-16T14:33:11;2.45;;;0.80;;
79149;SDS011;68563;45.644;13.782;2023-05-16T14:35:38;2.45;;;0.80;;
79149;SDS011;68563;45.644;13.782;2023-05-16T14:38:04;2.25;;;0.80;;
79149;SDS011;68563;45.644;13.782;2023-05-16T14:40:29;0.70;;;0.57;;
79149;SDS011;68563;45.644;13.782;2023-05-16T14:42:54;1.08;;;0.70;;
79149;SDS011;68563;45.644;13.782;2023-05-16T14:45:20;0.95;;;0.60;;
79149;SDS011;68563;45.644;13.782;2023-05-16T14:47:45;0.57;;;0.47;;
79149;SDS011;68563;45.644;13.782;2023-05-16T14:50:12;1.35;;;0.60;;
79149;SDS011;68563;45.644;13.782;2023-05-16T14:52:38;1.23;;;0.60;;
79149;SDS011;68563;45.644;13.782;2023-05-16T14:55:04;0.90;;;0.60;;
79149;SDS011;68563;45.644;13.782;2023-05-16T14:57:30;0.68;;;0.60;;
79149;SDS011;68563;45.644;13.782;2023-05-16T14:59:56;0.77;;;0.65;;
79149;SDS011;68563;45.644;13.782;2023-05-16T15:02:22;0.93;;;0.55;;
79149;SDS011;68563;45.644;13.782;2023-05-16T15:04:48;0.95;;;0.70;;
79149;SDS011;68563;45.644;13.782;2023-05-16T15:07:13;0.98;;;0.60;;
79149;SDS011;68563;45.644;13.782;2023-05-16T15:09:39;0.55;;;0.55;;
79149;SDS011;68563;45.644;13.782;2023-05-16T15:12:05;0.85;;;0.47;;
79149;SDS011;68563;45.644;13.782;2023-05-16T15:14:31;0.98;;;0.50;;